sensor_id;sensor_type;location;lat;lon;timestamp;P1;durP1;ratioP1;P2;durP2;ratioP2
18776;SDS011;9517;51.174;4.160;2023-09-12T00:00:42;50.53;;;25.80;;
18776;SDS011;9517;51.174;4.160;2023-09-12T00:03:09;49.40;;;24.07;;
18776;SDS011;9517;51.174;4.160;2023-09-12T00:05:37;55.43;;;26.53;;
18776;SDS011;9517;51.174;4.160;2023-09-12T00:08:04;46.80;;;24.47;;
18776;SDS011;9517;51.174;4.160;2023-09-12T00:10:34;47.63;;;24.10;;
18776;SDS011;9517;51.174;4.160;2023-09-12T00:13:02;48.50;;;25.00;;
18776;SDS011;9517;51.174;4.160;2023-09-12T00:15:29;52.87;;;26.07;;
18776;SDS011;9517;51.174;4.160;2023-09-12T00:17:56;57.23;;;27.33;;
18776;SDS011;9517;51.174;4.160;2023-09-12T00:20:23;52.50;;;26.33;;
18776;SDS011;9517;51.174;4.160;2023-09-12T00:22:50;53.47;;;25.87;;
18776;SDS011;9517;51.174;4.160;2023-09-12T00:25:19;49.90;;;24.90;;
18776;SDS011;9517;51.174;4.160;2023-09-12T00:27:48;56.00;;;28.13;;
18776;SDS011;9517;51.174;4.160;2023-09-12T00:30:15;54.37;;;27.60;;
18776;SDS011;9517;51.174;4.160;2023-09-12T00:32:42;58.03;;;30.37;;
18776;SDS011;9517;51.174;4.160;2023-09-12T00:35:09;59.93;;;30.50;;
18776;SDS011;9517;51.174;4.160;2023-09-12T00:37:36;65.40;;;31.00;;
18776;SDS011;9517;51.174;4.160;2023-09-12T00:40:04;63.63;;;30.37;;
18776;SDS011;9517;51.174;4.160;2023-09-12T00:42:31;71.30;;;33.63;;
18776;SDS011;9517;51.174;4.160;2023-09-12T00:45:00;73.13;;;33.80;;
18776;SDS011;9517;51.174;4.160;2023-09-12T00:47:27;71.97;;;35.27;;
18776;SDS011;9517;51.174;4.160;2023-09-12T00:49:56;68.10;;;32.17;;
18776;SDS011;9517;51.174;4.160;2023-09-12T00:52:24;68.87;;;32.17;;
18776;SDS011;9517;51.174;4.160;2023-09-12T00:54:52;70.27;;;33.57;;
18776;SDS011;9517;51.174;4.160;2023-09-12T00:57:21;62.27;;;32.10;;
18776;SDS011;9517;51.174;4.160;2023-09-12T00:59:49;64.13;;;30.13;;
18776;SDS011;9517;51.174;4.160;2023-09-12T01:02:18;56.53;;;29.13;;
18776;SDS011;9517;51.174;4.160;2023-09-12T01:04:47;52.93;;;27.90;;
18776;SDS011;9517;51.174;4.160;2023-09-12T01:07:15;52.17;;;26.03;;
18776;SDS011;9517;51.174;4.160;2023-09-12T01:09:42;51.63;;;25.63;;
18776;SDS011;9517;51.174;4.160;2023-09-12T01:12:10;47.10;;;24.30;;
18776;SDS011;9517;51.174;4.160;2023-09-12T01:14:39;49.57;;;25.17;;
18776;SDS011;9517;51.174;4.160;2023-09-12T01:17:09;55.13;;;26.73;;
18776;SDS011;9517;51.174;4.160;2023-09-12T01:19:37;51.77;;;26.23;;
18776;SDS011;9517;51.174;4.160;2023-09-12T01:28:03;58.07;;;26.93;;
18776;SDS011;9517;51.174;4.160;2023-09-12T01:30:34;57.90;;;26.90;;
18776;SDS011;9517;51.174;4.160;2023-09-12T01:33:02;62.43;;;26.83;;
18776;SDS011;9517;51.174;4.160;2023-09-12T01:35:30;55.33;;;26.33;;
18776;SDS011;9517;51.174;4.160;2023-09-12T01:37:57;66.87;;;28.33;;
18776;SDS011;9517;51.174;4.160;2023-09-12T01:40:40;62.13;;;27.30;;
18776;SDS011;9517;51.174;4.160;2023-09-12T01:43:13;66.50;;;30.50;;
18776;SDS011;9517;51.174;4.160;2023-09-12T01:45:43;67.37;;;30.83;;
18776;SDS011;9517;51.174;4.160;2023-09-12T01:48:11;70.40;;;29.60;;
18776;SDS011;9517;51.174;4.160;2023-09-12T01:50:39;68.73;;;29.97;;
18776;SDS011;9517;51.174;4.160;2023-09-12T01:53:06;70.13;;;30.90;;
18776;SDS011;9517;51.174;4.160;2023-09-12T01:55:32;60.63;;;28.50;;
18776;SDS011;9517;51.174;4.160;2023-09-12T01:58:00;59.93;;;28.67;;
18776;SDS011;9517;51.174;4.160;2023-09-12T02:00:30;49.17;;;24.50;;
18776;SDS011;9517;51.174;4.160;2023-09-12T02:02:58;49.03;;;24.47;;
18776;SDS011;9517;51.174;4.160;2023-09-12T02:05:25;50.77;;;25.27;;
18776;SDS011;9517;51.174;4.160;2023-09-12T02:07:53;49.17;;;25.17;;
18776;SDS011;9517;51.174;4.160;2023-09-12T02:10:20;47.83;;;25.10;;
18776;SDS011;9517;51.174;4.160;2023-09-12T02:12:47;46.67;;;24.97;;
18776;SDS011;9517;51.174;4.160;2023-09-12T02:15:14;48.27;;;25.77;;
18776;SDS011;9517;51.174;4.160;2023-09-12T02:17:42;51.73;;;26.03;;
18776;SDS011;9517;51.174;4.160;2023-09-12T02:20:10;46.63;;;25.73;;
18776;SDS011;9517;51.174;4.160;2023-09-12T02:22:37;47.67;;;26.37;;
18776;SDS011;9517;51.174;4.160;2023-09-12T02:25:05;51.63;;;27.17;;
18776;SDS011;9517;51.174;4.160;2023-09-12T02:27:34;49.50;;;26.30;;
18776;SDS011;9517;51.174;4.160;2023-09-12T02:30:01;47.67;;;26.17;;
18776;SDS011;9517;51.174;4.160;2023-09-12T02:32:28;47.33;;;26.00;;
18776;SDS011;9517;51.174;4.160;2023-09-12T02:34:57;50.97;;;27.40;;
18776;SDS011;9517;51.174;4.160;2023-09-12T02:37:25;49.87;;;26.37;;
18776;SDS011;9517;51.174;4.160;2023-09-12T02:39:52;46.70;;;24.90;;
18776;SDS011;9517;51.174;4.160;2023-09-12T02:42:19;53.37;;;26.37;;
18776;SDS011;9517;51.174;4.160;2023-09-12T02:44:46;48.27;;;26.17;;
18776;SDS011;9517;51.174;4.160;2023-09-12T02:47:13;54.33;;;28.10;;
18776;SDS011;9517;51.174;4.160;2023-09-12T02:49:40;47.43;;;24.63;;
18776;SDS011;9517;51.174;4.160;2023-09-12T02:52:09;46.83;;;25.93;;
18776;SDS011;9517;51.174;4.160;2023-09-12T02:54:36;47.17;;;25.07;;
18776;SDS011;9517;51.174;4.160;2023-09-12T02:57:03;46.13;;;23.80;;
18776;SDS011;9517;51.174;4.160;2023-09-12T02:59:31;47.87;;;24.70;;
18776;SDS011;9517;51.174;4.160;2023-09-12T03:01:58;51.43;;;25.93;;
18776;SDS011;9517;51.174;4.160;2023-09-12T03:04:25;48.20;;;24.83;;
18776;SDS011;9517;51.174;4.160;2023-09-12T03:06:52;51.57;;;25.63;;
18776;SDS011;9517;51.174;4.160;2023-09-12T03:09:21;54.17;;;25.67;;
18776;SDS011;9517;51.174;4.160;2023-09-12T03:11:49;48.27;;;24.23;;
18776;SDS011;9517;51.174;4.160;2023-09-12T03:14:16;53.30;;;25.77;;
18776;SDS011;9517;51.174;4.160;2023-09-12T03:16:43;53.37;;;26.23;;
18776;SDS011;9517;51.174;4.160;2023-09-12T03:19:10;58.27;;;26.57;;
18776;SDS011;9517;51.174;4.160;2023-09-12T03:21:37;48.97;;;26.07;;
18776;SDS011;9517;51.174;4.160;2023-09-12T03:24:05;52.23;;;26.73;;
18776;SDS011;9517;51.174;4.160;2023-09-12T03:26:35;48.60;;;24.80;;
18776;SDS011;9517;51.174;4.160;2023-09-12T03:29:02;46.50;;;23.23;;
18776;SDS011;9517;51.174;4.160;2023-09-12T03:31:30;48.13;;;23.60;;
18776;SDS011;9517;51.174;4.160;2023-09-12T03:33:57;48.27;;;23.90;;
18776;SDS011;9517;51.174;4.160;2023-09-12T03:36:24;47.00;;;23.57;;
18776;SDS011;9517;51.174;4.160;2023-09-12T03:38:51;46.03;;;22.23;;
18776;SDS011;9517;51.174;4.160;2023-09-12T03:41:18;44.63;;;21.77;;
18776;SDS011;9517;51.174;4.160;2023-09-12T03:43:49;41.00;;;20.40;;
18776;SDS011;9517;51.174;4.160;2023-09-12T03:46:20;43.83;;;20.70;;
18776;SDS011;9517;51.174;4.160;2023-09-12T03:48:48;49.10;;;22.90;;
18776;SDS011;9517;51.174;4.160;2023-09-12T03:51:15;39.67;;;21.23;;
18776;SDS011;9517;51.174;4.160;2023-09-12T03:53:42;44.70;;;22.63;;
18776;SDS011;9517;51.174;4.160;2023-09-12T03:56:10;48.17;;;23.73;;
18776;SDS011;9517;51.174;4.160;2023-09-12T03:58:37;45.50;;;22.57;;
18776;SDS011;9517;51.174;4.160;2023-09-12T04:01:06;46.47;;;22.97;;
18776;SDS011;9517;51.174;4.160;2023-09-12T04:03:33;44.73;;;21.87;;
18776;SDS011;9517;51.174;4.160;2023-09-12T04:06:00;48.53;;;23.37;;
18776;SDS011;9517;51.174;4.160;2023-09-12T04:08:27;44.13;;;21.57;;
18776;SDS011;9517;51.174;4.160;2023-09-12T04:10:54;40.50;;;21.53;;
18776;SDS011;9517;51.174;4.160;2023-09-12T04:13:21;48.57;;;20.73;;
18776;SDS011;9517;51.174;4.160;2023-09-12T04:15:48;44.47;;;23.27;;
18776;SDS011;9517;51.174;4.160;2023-09-12T04:18:17;43.50;;;22.17;;
18776;SDS011;9517;51.174;4.160;2023-09-12T04:20:44;41.23;;;21.57;;
18776;SDS011;9517;51.174;4.160;2023-09-12T04:23:11;43.43;;;21.80;;
18776;SDS011;9517;51.174;4.160;2023-09-12T04:25:38;45.17;;;21.00;;
18776;SDS011;9517;51.174;4.160;2023-09-12T04:28:08;44.70;;;22.27;;
18776;SDS011;9517;51.174;4.160;2023-09-12T04:30:35;41.47;;;21.03;;
18776;SDS011;9517;51.174;4.160;2023-09-12T04:33:02;40.40;;;20.53;;
18776;SDS011;9517;51.174;4.160;2023-09-12T04:35:33;39.00;;;19.43;;
18776;SDS011;9517;51.174;4.160;2023-09-12T04:38:01;40.40;;;20.80;;
18776;SDS011;9517;51.174;4.160;2023-09-12T04:40:28;48.67;;;22.20;;
18776;SDS011;9517;51.174;4.160;2023-09-12T04:42:56;37.03;;;19.40;;
18776;SDS011;9517;51.174;4.160;2023-09-12T04:45:23;39.07;;;20.10;;
18776;SDS011;9517;51.174;4.160;2023-09-12T04:47:50;41.63;;;21.60;;
18776;SDS011;9517;51.174;4.160;2023-09-12T04:50:17;42.90;;;21.47;;
18776;SDS011;9517;51.174;4.160;2023-09-12T04:52:46;41.70;;;20.90;;
18776;SDS011;9517;51.174;4.160;2023-09-12T04:55:13;41.10;;;20.43;;
18776;SDS011;9517;51.174;4.160;2023-09-12T04:57:40;42.83;;;20.00;;
18776;SDS011;9517;51.174;4.160;2023-09-12T05:00:07;43.03;;;21.27;;
18776;SDS011;9517;51.174;4.160;2023-09-12T05:02:36;42.03;;;20.37;;
18776;SDS011;9517;51.174;4.160;2023-09-12T05:05:03;42.77;;;20.90;;
18776;SDS011;9517;51.174;4.160;2023-09-12T05:07:30;45.40;;;22.20;;
18776;SDS011;9517;51.174;4.160;2023-09-12T05:09:59;40.17;;;21.30;;
18776;SDS011;9517;51.174;4.160;2023-09-12T05:12:26;39.60;;;20.60;;
18776;SDS011;9517;51.174;4.160;2023-09-12T05:14:53;43.00;;;20.87;;
18776;SDS011;9517;51.174;4.160;2023-09-12T05:17:20;42.73;;;20.23;;
18776;SDS011;9517;51.174;4.160;2023-09-12T05:19:47;41.83;;;21.30;;
18776;SDS011;9517;51.174;4.160;2023-09-12T05:22:14;44.83;;;21.77;;
18776;SDS011;9517;51.174;4.160;2023-09-12T05:24:41;45.27;;;21.87;;
18776;SDS011;9517;51.174;4.160;2023-09-12T05:27:10;53.37;;;22.27;;
18776;SDS011;9517;51.174;4.160;2023-09-12T05:29:37;47.43;;;23.23;;
18776;SDS011;9517;51.174;4.160;2023-09-12T05:32:05;47.67;;;22.83;;
18776;SDS011;9517;51.174;4.160;2023-09-12T05:34:32;49.43;;;21.83;;
18776;SDS011;9517;51.174;4.160;2023-09-12T05:36:59;43.90;;;23.07;;
18776;SDS011;9517;51.174;4.160;2023-09-12T05:39:27;49.20;;;24.00;;
18776;SDS011;9517;51.174;4.160;2023-09-12T05:41:55;51.13;;;24.90;;
18776;SDS011;9517;51.174;4.160;2023-09-12T05:44:23;56.20;;;26.60;;
18776;SDS011;9517;51.174;4.160;2023-09-12T05:46:50;59.90;;;26.93;;
18776;SDS011;9517;51.174;4.160;2023-09-12T05:49:17;58.47;;;27.73;;
18776;SDS011;9517;51.174;4.160;2023-09-12T05:51:44;56.97;;;27.07;;
18776;SDS011;9517;51.174;4.160;2023-09-12T05:54:11;60.70;;;27.53;;
18776;SDS011;9517;51.174;4.160;2023-09-12T05:56:38;58.80;;;27.60;;
18776;SDS011;9517;51.174;4.160;2023-09-12T05:59:05;63.87;;;29.03;;
18776;SDS011;9517;51.174;4.160;2023-09-12T06:01:34;61.93;;;28.70;;
18776;SDS011;9517;51.174;4.160;2023-09-12T06:04:01;74.17;;;30.20;;
18776;SDS011;9517;51.174;4.160;2023-09-12T06:06:28;83.87;;;32.47;;
18776;SDS011;9517;51.174;4.160;2023-09-12T06:08:56;79.80;;;30.63;;
18776;SDS011;9517;51.174;4.160;2023-09-12T06:11:24;81.63;;;31.87;;
18776;SDS011;9517;51.174;4.160;2023-09-12T06:13:51;82.80;;;32.10;;
18776;SDS011;9517;51.174;4.160;2023-09-12T06:16:21;88.63;;;33.40;;
18776;SDS011;9517;51.174;4.160;2023-09-12T06:18:49;91.80;;;34.33;;
18776;SDS011;9517;51.174;4.160;2023-09-12T06:21:18;99.20;;;34.67;;
18776;SDS011;9517;51.174;4.160;2023-09-12T06:23:46;100.30;;;34.53;;
18776;SDS011;9517;51.174;4.160;2023-09-12T06:26:13;96.57;;;34.37;;
18776;SDS011;9517;51.174;4.160;2023-09-12T06:28:40;99.47;;;34.30;;
18776;SDS011;9517;51.174;4.160;2023-09-12T06:31:07;93.30;;;34.13;;
18776;SDS011;9517;51.174;4.160;2023-09-12T06:33:35;90.00;;;34.47;;
18776;SDS011;9517;51.174;4.160;2023-09-12T06:36:04;95.33;;;34.83;;
18776;SDS011;9517;51.174;4.160;2023-09-12T06:38:31;97.73;;;34.27;;
18776;SDS011;9517;51.174;4.160;2023-09-12T06:40:58;100.07;;;35.77;;
18776;SDS011;9517;51.174;4.160;2023-09-12T06:43:26;98.43;;;36.73;;
18776;SDS011;9517;51.174;4.160;2023-09-12T06:45:53;95.17;;;35.13;;
18776;SDS011;9517;51.174;4.160;2023-09-12T06:48:20;109.43;;;38.70;;
18776;SDS011;9517;51.174;4.160;2023-09-12T06:50:47;98.47;;;34.37;;
18776;SDS011;9517;51.174;4.160;2023-09-12T06:53:17;97.53;;;36.90;;
18776;SDS011;9517;51.174;4.160;2023-09-12T06:55:44;97.60;;;35.80;;
18776;SDS011;9517;51.174;4.160;2023-09-12T06:58:11;108.70;;;37.93;;
18776;SDS011;9517;51.174;4.160;2023-09-12T07:00:39;100.50;;;35.57;;
18776;SDS011;9517;51.174;4.160;2023-09-12T07:03:06;97.50;;;34.27;;
18776;SDS011;9517;51.174;4.160;2023-09-12T07:05:35;97.77;;;36.33;;
18776;SDS011;9517;51.174;4.160;2023-09-12T07:08:04;94.97;;;35.20;;
18776;SDS011;9517;51.174;4.160;2023-09-12T07:10:33;93.27;;;35.03;;
18776;SDS011;9517;51.174;4.160;2023-09-12T07:13:01;95.90;;;37.47;;
18776;SDS011;9517;51.174;4.160;2023-09-12T07:15:29;90.10;;;37.30;;
18776;SDS011;9517;51.174;4.160;2023-09-12T07:17:56;97.57;;;36.90;;
18776;SDS011;9517;51.174;4.160;2023-09-12T07:20:24;99.20;;;37.73;;
18776;SDS011;9517;51.174;4.160;2023-09-12T07:22:51;95.33;;;36.50;;
18776;SDS011;9517;51.174;4.160;2023-09-12T07:25:18;91.47;;;36.63;;
18776;SDS011;9517;51.174;4.160;2023-09-12T07:27:50;90.73;;;36.33;;
18776;SDS011;9517;51.174;4.160;2023-09-12T07:30:18;87.73;;;35.70;;
18776;SDS011;9517;51.174;4.160;2023-09-12T07:32:45;92.83;;;37.97;;
18776;SDS011;9517;51.174;4.160;2023-09-12T07:35:12;87.97;;;38.00;;
18776;SDS011;9517;51.174;4.160;2023-09-12T07:37:40;79.40;;;34.33;;
18776;SDS011;9517;51.174;4.160;2023-09-12T07:40:08;71.57;;;31.97;;
18776;SDS011;9517;51.174;4.160;2023-09-12T07:42:36;71.17;;;30.93;;
18776;SDS011;9517;51.174;4.160;2023-09-12T07:45:05;68.80;;;30.17;;
18776;SDS011;9517;51.174;4.160;2023-09-12T07:47:33;73.10;;;30.30;;
18776;SDS011;9517;51.174;4.160;2023-09-12T07:50:00;65.90;;;28.90;;
18776;SDS011;9517;51.174;4.160;2023-09-12T07:52:28;61.90;;;28.33;;
18776;SDS011;9517;51.174;4.160;2023-09-12T07:54:58;55.17;;;26.00;;
18776;SDS011;9517;51.174;4.160;2023-09-12T07:57:26;55.07;;;25.70;;
18776;SDS011;9517;51.174;4.160;2023-09-12T07:59:54;53.30;;;24.83;;
18776;SDS011;9517;51.174;4.160;2023-09-12T08:02:23;49.97;;;23.27;;
18776;SDS011;9517;51.174;4.160;2023-09-12T08:04:50;51.00;;;24.23;;
18776;SDS011;9517;51.174;4.160;2023-09-12T08:07:18;49.87;;;23.77;;
18776;SDS011;9517;51.174;4.160;2023-09-12T08:09:49;49.10;;;23.63;;
18776;SDS011;9517;51.174;4.160;2023-09-12T08:12:17;45.60;;;22.40;;
18776;SDS011;9517;51.174;4.160;2023-09-12T08:14:45;52.77;;;24.27;;
18776;SDS011;9517;51.174;4.160;2023-09-12T08:17:13;53.97;;;24.70;;
18776;SDS011;9517;51.174;4.160;2023-09-12T08:19:42;50.13;;;23.63;;
18776;SDS011;9517;51.174;4.160;2023-09-12T08:22:09;49.13;;;23.87;;
18776;SDS011;9517;51.174;4.160;2023-09-12T08:24:37;52.13;;;24.80;;
18776;SDS011;9517;51.174;4.160;2023-09-12T08:27:05;47.73;;;22.93;;
18776;SDS011;9517;51.174;4.160;2023-09-12T08:29:34;47.70;;;22.97;;
18776;SDS011;9517;51.174;4.160;2023-09-12T08:32:02;46.77;;;23.67;;
18776;SDS011;9517;51.174;4.160;2023-09-12T08:34:29;47.87;;;24.23;;
18776;SDS011;9517;51.174;4.160;2023-09-12T08:36:59;42.27;;;21.27;;
18776;SDS011;9517;51.174;4.160;2023-09-12T08:39:27;44.80;;;21.70;;
18776;SDS011;9517;51.174;4.160;2023-09-12T08:42:05;41.73;;;20.67;;
18776;SDS011;9517;51.174;4.160;2023-09-12T08:44:37;42.30;;;20.07;;
18776;SDS011;9517;51.174;4.160;2023-09-12T08:47:05;35.27;;;19.20;;
18776;SDS011;9517;51.174;4.160;2023-09-12T08:49:34;38.07;;;19.73;;
18776;SDS011;9517;51.174;4.160;2023-09-12T08:52:04;39.23;;;19.90;;
18776;SDS011;9517;51.174;4.160;2023-09-12T08:54:31;37.47;;;18.83;;
18776;SDS011;9517;51.174;4.160;2023-09-12T08:56:58;35.20;;;18.47;;
18776;SDS011;9517;51.174;4.160;2023-09-12T08:59:30;35.63;;;19.10;;
18776;SDS011;9517;51.174;4.160;2023-09-12T09:01:59;36.40;;;18.63;;
18776;SDS011;9517;51.174;4.160;2023-09-12T09:04:29;36.70;;;18.07;;
18776;SDS011;9517;51.174;4.160;2023-09-12T09:06:59;33.07;;;17.07;;
18776;SDS011;9517;51.174;4.160;2023-09-12T09:09:29;36.23;;;16.87;;
18776;SDS011;9517;51.174;4.160;2023-09-12T09:11:57;35.33;;;17.30;;
18776;SDS011;9517;51.174;4.160;2023-09-12T09:14:24;37.13;;;19.60;;
18776;SDS011;9517;51.174;4.160;2023-09-12T09:16:51;36.37;;;18.50;;
18776;SDS011;9517;51.174;4.160;2023-09-12T09:19:20;45.17;;;20.87;;
18776;SDS011;9517;51.174;4.160;2023-09-12T09:21:47;41.10;;;20.77;;
18776;SDS011;9517;51.174;4.160;2023-09-12T09:24:14;40.75;;;19.98;;
18776;SDS011;9517;51.174;4.160;2023-09-12T09:26:46;39.63;;;20.52;;
18776;SDS011;9517;51.174;4.160;2023-09-12T09:29:15;38.30;;;19.90;;
18776;SDS011;9517;51.174;4.160;2023-09-12T09:31:44;36.53;;;19.42;;
18776;SDS011;9517;51.174;4.160;2023-09-12T09:34:13;39.47;;;20.13;;
18776;SDS011;9517;51.174;4.160;2023-09-12T09:36:41;39.90;;;19.90;;
18776;SDS011;9517;51.174;4.160;2023-09-12T09:39:09;37.40;;;19.27;;
18776;SDS011;9517;51.174;4.160;2023-09-12T09:41:37;38.80;;;19.53;;
18776;SDS011;9517;51.174;4.160;2023-09-12T09:44:06;38.13;;;18.93;;
18776;SDS011;9517;51.174;4.160;2023-09-12T09:46:34;33.45;;;16.70;;
18776;SDS011;9517;51.174;4.160;2023-09-12T09:49:03;31.90;;;15.18;;
18776;SDS011;9517;51.174;4.160;2023-09-12T09:51:31;31.15;;;15.65;;
18776;SDS011;9517;51.174;4.160;2023-09-12T09:53:58;29.67;;;15.43;;
18776;SDS011;9517;51.174;4.160;2023-09-12T09:56:25;26.73;;;13.88;;
18776;SDS011;9517;51.174;4.160;2023-09-12T09:58:53;25.67;;;12.73;;
18776;SDS011;9517;51.174;4.160;2023-09-12T10:01:23;34.55;;;15.75;;
18776;SDS011;9517;51.174;4.160;2023-09-12T10:03:57;30.30;;;15.95;;
18776;SDS011;9517;51.174;4.160;2023-09-12T10:06:26;29.13;;;15.13;;
18776;SDS011;9517;51.174;4.160;2023-09-12T10:08:54;28.17;;;14.27;;
18776;SDS011;9517;51.174;4.160;2023-09-12T10:11:22;29.58;;;15.63;;
18776;SDS011;9517;51.174;4.160;2023-09-12T10:13:52;30.55;;;15.55;;
18776;SDS011;9517;51.174;4.160;2023-09-12T10:16:24;31.90;;;15.63;;
18776;SDS011;9517;51.174;4.160;2023-09-12T10:18:57;29.95;;;15.82;;
18776;SDS011;9517;51.174;4.160;2023-09-12T10:21:28;27.98;;;15.95;;
18776;SDS011;9517;51.174;4.160;2023-09-12T10:23:57;29.42;;;14.90;;
18776;SDS011;9517;51.174;4.160;2023-09-12T10:26:26;26.17;;;13.82;;
18776;SDS011;9517;51.174;4.160;2023-09-12T10:28:53;33.60;;;13.77;;
18776;SDS011;9517;51.174;4.160;2023-09-12T10:31:21;25.13;;;12.77;;
18776;SDS011;9517;51.174;4.160;2023-09-12T10:33:51;22.73;;;11.45;;
18776;SDS011;9517;51.174;4.160;2023-09-12T10:36:19;24.27;;;12.68;;
18776;SDS011;9517;51.174;4.160;2023-09-12T10:38:47;21.75;;;12.18;;
18776;SDS011;9517;51.174;4.160;2023-09-12T10:41:15;21.00;;;11.35;;
18776;SDS011;9517;51.174;4.160;2023-09-12T10:43:43;21.33;;;10.90;;
18776;SDS011;9517;51.174;4.160;2023-09-12T10:46:15;27.20;;;13.05;;
18776;SDS011;9517;51.174;4.160;2023-09-12T10:48:44;26.98;;;14.35;;
18776;SDS011;9517;51.174;4.160;2023-09-12T10:51:11;24.00;;;13.35;;
18776;SDS011;9517;51.174;4.160;2023-09-12T10:53:44;24.13;;;11.32;;
18776;SDS011;9517;51.174;4.160;2023-09-12T10:56:15;16.27;;;8.35;;
18776;SDS011;9517;51.174;4.160;2023-09-12T11:01:37;17.73;;;9.80;;
18776;SDS011;9517;51.174;4.160;2023-09-12T11:06:59;23.60;;;12.52;;
18776;SDS011;9517;51.174;4.160;2023-09-12T11:09:27;20.27;;;10.35;;
18776;SDS011;9517;51.174;4.160;2023-09-12T11:11:55;19.17;;;11.20;;
18776;SDS011;9517;51.174;4.160;2023-09-12T11:14:24;21.52;;;11.02;;
18776;SDS011;9517;51.174;4.160;2023-09-12T11:19:50;23.08;;;12.75;;
18776;SDS011;9517;51.174;4.160;2023-09-12T11:22:21;20.10;;;10.50;;
18776;SDS011;9517;51.174;4.160;2023-09-12T11:24:49;20.77;;;11.10;;
18776;SDS011;9517;51.174;4.160;2023-09-12T11:27:16;20.05;;;10.55;;
18776;SDS011;9517;51.174;4.160;2023-09-12T11:29:43;19.60;;;10.02;;
18776;SDS011;9517;51.174;4.160;2023-09-12T11:32:11;16.33;;;9.23;;
18776;SDS011;9517;51.174;4.160;2023-09-12T11:34:54;16.15;;;8.50;;
18776;SDS011;9517;51.174;4.160;2023-09-12T11:37:24;14.77;;;8.80;;
18776;SDS011;9517;51.174;4.160;2023-09-12T11:39:52;14.90;;;7.60;;
18776;SDS011;9517;51.174;4.160;2023-09-12T11:42:22;14.90;;;7.28;;
18776;SDS011;9517;51.174;4.160;2023-09-12T11:44:50;13.90;;;7.78;;
18776;SDS011;9517;51.174;4.160;2023-09-12T11:47:18;16.95;;;7.60;;
18776;SDS011;9517;51.174;4.160;2023-09-12T11:49:45;13.18;;;6.25;;
18776;SDS011;9517;51.174;4.160;2023-09-12T11:52:14;17.13;;;7.28;;
18776;SDS011;9517;51.174;4.160;2023-09-12T11:54:43;13.57;;;6.70;;
18776;SDS011;9517;51.174;4.160;2023-09-12T11:57:12;12.90;;;7.15;;
18776;SDS011;9517;51.174;4.160;2023-09-12T11:59:41;12.48;;;6.20;;
18776;SDS011;9517;51.174;4.160;2023-09-12T12:02:11;12.40;;;6.03;;
18776;SDS011;9517;51.174;4.160;2023-09-12T12:04:40;13.20;;;6.65;;
18776;SDS011;9517;51.174;4.160;2023-09-12T12:07:07;15.00;;;6.97;;
18776;SDS011;9517;51.174;4.160;2023-09-12T12:09:37;13.00;;;6.63;;
18776;SDS011;9517;51.174;4.160;2023-09-12T12:12:09;13.15;;;4.75;;
18776;SDS011;9517;51.174;4.160;2023-09-12T12:14:38;11.48;;;4.38;;
18776;SDS011;9517;51.174;4.160;2023-09-12T12:17:06;11.20;;;5.18;;
18776;SDS011;9517;51.174;4.160;2023-09-12T12:19:36;10.50;;;5.25;;
18776;SDS011;9517;51.174;4.160;2023-09-12T12:22:04;13.85;;;7.00;;
18776;SDS011;9517;51.174;4.160;2023-09-12T12:24:41;14.35;;;7.00;;
18776;SDS011;9517;51.174;4.160;2023-09-12T12:27:10;16.05;;;7.80;;
18776;SDS011;9517;51.174;4.160;2023-09-12T12:29:37;13.90;;;7.78;;
18776;SDS011;9517;51.174;4.160;2023-09-12T12:32:05;17.00;;;9.55;;
18776;SDS011;9517;51.174;4.160;2023-09-12T12:34:34;14.30;;;7.53;;
18776;SDS011;9517;51.174;4.160;2023-09-12T12:37:02;13.98;;;6.15;;
18776;SDS011;9517;51.174;4.160;2023-09-12T12:39:31;15.07;;;6.93;;
18776;SDS011;9517;51.174;4.160;2023-09-12T12:42:00;12.82;;;5.82;;
18776;SDS011;9517;51.174;4.160;2023-09-12T12:44:34;13.55;;;6.88;;
18776;SDS011;9517;51.174;4.160;2023-09-12T12:47:06;14.20;;;7.47;;
18776;SDS011;9517;51.174;4.160;2023-09-12T12:49:38;28.60;;;16.38;;
18776;SDS011;9517;51.174;4.160;2023-09-12T12:52:05;36.45;;;22.17;;
18776;SDS011;9517;51.174;4.160;2023-09-12T12:54:35;35.08;;;22.33;;
18776;SDS011;9517;51.174;4.160;2023-09-12T12:57:04;32.67;;;19.83;;
18776;SDS011;9517;51.174;4.160;2023-09-12T12:59:31;31.77;;;19.98;;
18776;SDS011;9517;51.174;4.160;2023-09-12T13:02:01;31.20;;;19.88;;
18776;SDS011;9517;51.174;4.160;2023-09-12T13:04:34;32.42;;;19.80;;
18776;SDS011;9517;51.174;4.160;2023-09-12T13:07:03;32.25;;;21.63;;
18776;SDS011;9517;51.174;4.160;2023-09-12T13:09:30;30.23;;;19.83;;
18776;SDS011;9517;51.174;4.160;2023-09-12T13:11:58;29.30;;;18.73;;
18776;SDS011;9517;51.174;4.160;2023-09-12T13:14:27;32.88;;;19.70;;
18776;SDS011;9517;51.174;4.160;2023-09-12T13:16:56;33.60;;;21.30;;
18776;SDS011;9517;51.174;4.160;2023-09-12T13:19:24;28.83;;;19.30;;
18776;SDS011;9517;51.174;4.160;2023-09-12T13:21:51;28.45;;;18.45;;
18776;SDS011;9517;51.174;4.160;2023-09-12T13:24:18;28.60;;;18.80;;
18776;SDS011;9517;51.174;4.160;2023-09-12T13:26:45;32.20;;;20.95;;
18776;SDS011;9517;51.174;4.160;2023-09-12T13:29:13;29.42;;;19.70;;
18776;SDS011;9517;51.174;4.160;2023-09-12T13:31:41;31.90;;;20.98;;
18776;SDS011;9517;51.174;4.160;2023-09-12T13:34:08;31.50;;;21.92;;
18776;SDS011;9517;51.174;4.160;2023-09-12T13:36:35;30.75;;;20.80;;
18776;SDS011;9517;51.174;4.160;2023-09-12T13:39:02;31.08;;;21.77;;
18776;SDS011;9517;51.174;4.160;2023-09-12T13:41:31;30.67;;;20.05;;
18776;SDS011;9517;51.174;4.160;2023-09-12T13:43:58;30.63;;;21.20;;
18776;SDS011;9517;51.174;4.160;2023-09-12T13:46:25;29.42;;;20.05;;
18776;SDS011;9517;51.174;4.160;2023-09-12T13:48:54;31.25;;;20.13;;
18776;SDS011;9517;51.174;4.160;2023-09-12T13:51:25;32.25;;;20.05;;
18776;SDS011;9517;51.174;4.160;2023-09-12T13:53:52;26.63;;;19.92;;
18776;SDS011;9517;51.174;4.160;2023-09-12T13:56:19;29.30;;;18.88;;
18776;SDS011;9517;51.174;4.160;2023-09-12T13:58:46;25.25;;;17.63;;
18776;SDS011;9517;51.174;4.160;2023-09-12T14:01:13;25.20;;;17.58;;
18776;SDS011;9517;51.174;4.160;2023-09-12T14:03:42;27.85;;;19.50;;
18776;SDS011;9517;51.174;4.160;2023-09-12T14:06:10;27.88;;;19.27;;
18776;SDS011;9517;51.174;4.160;2023-09-12T14:08:37;29.13;;;18.92;;
18776;SDS011;9517;51.174;4.160;2023-09-12T14:11:04;28.52;;;17.73;;
18776;SDS011;9517;51.174;4.160;2023-09-12T14:13:32;29.60;;;17.48;;
18776;SDS011;9517;51.174;4.160;2023-09-12T14:15:59;26.40;;;16.52;;
18776;SDS011;9517;51.174;4.160;2023-09-12T14:18:26;29.20;;;19.77;;
18776;SDS011;9517;51.174;4.160;2023-09-12T14:20:53;29.85;;;19.67;;
18776;SDS011;9517;51.174;4.160;2023-09-12T14:23:22;28.98;;;19.77;;
18776;SDS011;9517;51.174;4.160;2023-09-12T14:25:50;30.85;;;20.42;;
18776;SDS011;9517;51.174;4.160;2023-09-12T14:28:17;31.88;;;20.20;;
18776;SDS011;9517;51.174;4.160;2023-09-12T14:30:44;31.05;;;20.15;;
18776;SDS011;9517;51.174;4.160;2023-09-12T14:33:13;32.15;;;20.45;;
18776;SDS011;9517;51.174;4.160;2023-09-12T14:35:42;30.95;;;20.35;;
18776;SDS011;9517;51.174;4.160;2023-09-12T14:38:10;31.50;;;19.02;;
18776;SDS011;9517;51.174;4.160;2023-09-12T14:40:39;30.80;;;19.95;;
18776;SDS011;9517;51.174;4.160;2023-09-12T14:43:06;31.40;;;19.63;;
18776;SDS011;9517;51.174;4.160;2023-09-12T14:45:33;31.60;;;18.92;;
18776;SDS011;9517;51.174;4.160;2023-09-12T14:48:00;29.63;;;17.67;;
18776;SDS011;9517;51.174;4.160;2023-09-12T14:50:27;30.45;;;17.98;;
18776;SDS011;9517;51.174;4.160;2023-09-12T14:52:55;33.35;;;18.45;;
18776;SDS011;9517;51.174;4.160;2023-09-12T14:55:22;31.58;;;17.77;;